ADDS METAR Data INFO
IDs: Format: Raw Decoded Include TAF

Data at: 1511 UTC 11 Dec 2017

KPYM 111452Z AUTO 26011KT 10SM FEW075 OVC100 02/M04 A2999 RMK AO2 SLP156 T00221044 50004
KPYM 111352Z AUTO 24011KT 10SM BKN055 OVC070 02/M05 A2999 RMK AO2 SLP157 T00171050
KPYM 111252Z AUTO 23007KT 10SM OVC065 01/M05 A2998 RMK AO2 SLP154 T00111050
KPYM 111152Z AUTO 24006KT 10SM BKN070 OVC085 00/M05 A2998 RMK AO2 SLP152 T00001050 10017 20000 53010 $
KPYM 111052Z AUTO 24007KT 10SM OVC065 01/M05 A2996 RMK AO2 SLP147 T00111050 $
KPYM 110952Z AUTO 23006KT 10SM OVC065 02/M05 A2994 RMK AO2 SLP141 T00171050 $
KPYM 110852Z AUTO 24007KT 10SM OVC070 02/M05 A2995 RMK AO2 SLP142 T00171050 56007 $
KPYM 110752Z AUTO 25007KT 10SM SCT040 OVC075 02/M05 A2995 RMK AO2 SLP142 T00171050 $
KPYM 110652Z AUTO 24007KT 10SM BKN048 BKN055 OVC085 02/M05 A2996 RMK AO2 SLP146 T00171050 $
KPYM 110552Z AUTO 24009KT 10SM OVC049 02/M04 A2997 RMK AO2 SLP149 T00171039 10017 21022 51001 $
KPYM 110452Z AUTO 23006KT 10SM OVC039 01/M03 A2997 RMK AO2 SLP149 T00111033 400441022 $
KPYM 110352Z AUTO 21003KT 10SM OVC043 M01/M03 A2997 RMK AO2 SLP151 T10061033 $
KPYM 110252Z AUTO 00000KT 10SM CLR M01/M04 A2996 RMK AO2 SLP148 T10111044 50007 $
KPYM 110152Z AUTO 00000KT 10SM CLR M02/M04 A2997 RMK AO2 SLP150 T10171039 $
KPYM 110052Z AUTO 20004KT 10SM CLR 00/M04 A2996 RMK AO2 SLP147 T00001039 $
KPYM 102352Z AUTO 22004KT 10SM CLR M01/M04 A2994 RMK AO2 SLP141 T10111044 10044 21017 51024 $
KPYM 102252Z AUTO 19003KT 10SM CLR 00/M03 A2993 RMK AO2 SLP136 T00001033 $
KPYM 102152Z AUTO 20003KT 10SM CLR 01/M04 A2991 RMK AO2 SLP129 T00061039 $
KPYM 102052Z AUTO 24006KT 10SM CLR 02/M04 A2987 RMK AO2 SLP117 T00221039 53025 $
KPYM 101952Z AUTO 27008KT 10SM CLR 03/M03 A2984 RMK AO2 SLP107 T00331033 $
KPYM 101852Z AUTO 26010KT 10SM CLR 04/M03 A2981 RMK AO2 SLP097 T00391028 $
KPYM 101752Z AUTO 25009KT 10SM CLR 03/M03 A2980 RMK AO2 SLP092 60000 T00331028 10033 20000 51005 $
KPYM 101652Z AUTO 26010G17KT 10SM CLR 03/M02 A2980 RMK AO2 SLP092 T00281022 $
KPYM 101552Z AUTO 26009KT 10SM CLR 02/M02 A2980 RMK AO2 SLP091 T00171022 $
KPYM 101452Z AUTO 27006KT 10SM CLR 02/M02 A2979 RMK AO2 SLP088 60000 T00171017 51027 $
KPYM 101352Z AUTO 26008KT 10SM BKN110 00/M02 A2976 RMK AO2 SLP080 T00001022 $
KPYM 101252Z AUTO 26007KT 10SM SCT110 00/M02 A2973 RMK AO2 SNE15 SLP070 P0000 T00001017 $
KPYM 101226Z AUTO 26006KT 10SM FEW007 BKN030 BKN100 00/M02 A2972 RMK AO2 SNE15 P0000 T00001017 $
KPYM 101152Z AUTO 26006KT 6SM -SN BR FEW006 BKN026 OVC070 00/M01 A2971 RMK AO2 SNE06B28 SLP060 P0000 60000 7//// T00001011 10011 20000 53026 $
KPYM 101121Z AUTO 26006KT 10SM FEW008 SCT070 OVC090 00/M01 A2969 RMK AO2 SNE06 P0000 T00001011 $
KPYM 101052Z AUTO 28005KT 8SM -SN FEW075 OVC100 00/M02 A2967 RMK AO2 SNB28 SLP049 P0000 T00001017 $
KPYM 100952Z AUTO 29007KT 10SM FEW008 OVC060 00/M02 A2965 RMK AO2 SNB21E30 SLP041 P0000 T00001017 $
KPYM 100937Z AUTO 28006KT 9SM FEW008 OVC060 00/M02 A2964 RMK AO2 SNB21E30 P0000 T00001017 $
KPYM 100852Z AUTO 31006KT 10SM OVC006 01/M01 A2963 RMK AO2 SNB06E43 CIG 005V009 SLP034 P0000 60000 T00061011 51015 $
KPYM 100752Z AUTO 31007KT 10SM OVC008 01/M01 A2962 RMK AO2 SNB0655E28 CIG 006V012 SLP032 P0000 T00061011 $
KPYM 100652Z AUTO 32009KT 4SM BR OVC008 01/M01 A2961 RMK AO2 SNB02E30 CIG 005V010 SLP029 P0000 T00061011 $
KPYM 100552Z AUTO 32010KT 6SM BR OVC006 01/00 A2958 RMK AO2 SNE25 SLP019 P0000 60026 T00110000 10028 20011 58003 $
KPYM 100511Z AUTO 33008KT 3SM -SN BR OVC005 01/00 A2958 RMK AO2 CIG 004V009 P0000 T00110000 $
KPYM 100452Z AUTO 33009KT 3SM -SN BR OVC004 01/00 A2959 RMK AO2 SLP022 P0002 T00110000 400280006 $
KPYM 100434Z AUTO 32005KT 3SM -SN BR OVC004 01/01 A2960 RMK AO2 P0001 T00110006 $
KPYM 100352Z AUTO 32007KT 4SM -SN BR OVC005 02/01 A2960 RMK AO2 RAE08SNB08 SLP025 P0004 T00170006 $